Terminal Aerodrome Forecast
Issued by NWS Chicago, IL

Home | Current Version | Previous Version | Text Only | Print | Product List | Glossary On
Versions: 1 2 3 4 5 6 7 8 9 10 11 12 13 14 15 16 17 18 19 20 21 22 23 24
000
FTUS43 KLOT 291120
TAFRFD
TAF
KRFD 291120Z 2912/3012 20008KT P6SM SKC
     FM291400 25013G20KT P6SM BKN018
     FM291700 26014G21KT P6SM SCT040
     FM300100 23004KT P6SM FEW050=

USA.gov is the U.S. government's official web portal to all federal, state and local government web resources and services.